sensor_id;sensor_type;location;lat;lon;timestamp;P1;durP1;ratioP1;P2;durP2;ratioP2
13985;SDS011;7067;51.832;8.296;2023-02-28T00:01:05;3.23;;;2.50;;
13985;SDS011;7067;51.832;8.296;2023-02-28T00:03:30;5.53;;;3.27;;
13985;SDS011;7067;51.832;8.296;2023-02-28T00:06:00;3.85;;;2.60;;
13985;SDS011;7067;51.832;8.296;2023-02-28T00:08:25;9.27;;;3.27;;
13985;SDS011;7067;51.832;8.296;2023-02-28T00:10:51;9.97;;;3.63;;
13985;SDS011;7067;51.832;8.296;2023-02-28T00:13:19;17.33;;;4.60;;
13985;SDS011;7067;51.832;8.296;2023-02-28T00:15:44;8.67;;;3.43;;
13985;SDS011;7067;51.832;8.296;2023-02-28T00:18:10;7.63;;;3.87;;
13985;SDS011;7067;51.832;8.296;2023-02-28T00:20:36;18.13;;;3.63;;
13985;SDS011;7067;51.832;8.296;2023-02-28T00:23:02;5.27;;;3.90;;
13985;SDS011;7067;51.832;8.296;2023-02-28T00:25:27;4.80;;;2.63;;
13985;SDS011;7067;51.832;8.296;2023-02-28T00:27:52;14.50;;;3.20;;
13985;SDS011;7067;51.832;8.296;2023-02-28T00:30:18;7.00;;;2.97;;
13985;SDS011;7067;51.832;8.296;2023-02-28T00:32:44;5.07;;;2.97;;
13985;SDS011;7067;51.832;8.296;2023-02-28T00:35:09;7.63;;;2.67;;
13985;SDS011;7067;51.832;8.296;2023-02-28T00:37:34;2.70;;;2.03;;
13985;SDS011;7067;51.832;8.296;2023-02-28T00:40:00;3.50;;;2.20;;
13985;SDS011;7067;51.832;8.296;2023-02-28T00:42:25;3.87;;;3.47;;
13985;SDS011;7067;51.832;8.296;2023-02-28T00:44:50;3.77;;;2.30;;
13985;SDS011;7067;51.832;8.296;2023-02-28T00:47:16;10.73;;;3.17;;
13985;SDS011;7067;51.832;8.296;2023-02-28T00:49:41;4.80;;;2.40;;
13985;SDS011;7067;51.832;8.296;2023-02-28T00:52:06;3.67;;;3.07;;
13985;SDS011;7067;51.832;8.296;2023-02-28T00:54:32;10.83;;;2.90;;
13985;SDS011;7067;51.832;8.296;2023-02-28T00:56:57;5.30;;;2.90;;
13985;SDS011;7067;51.832;8.296;2023-02-28T00:59:22;3.17;;;2.23;;
13985;SDS011;7067;51.832;8.296;2023-02-28T01:01:48;3.43;;;2.83;;
13985;SDS011;7067;51.832;8.296;2023-02-28T01:04:13;4.63;;;3.00;;
13985;SDS011;7067;51.832;8.296;2023-02-28T01:06:39;4.80;;;2.30;;
13985;SDS011;7067;51.832;8.296;2023-02-28T01:09:05;10.13;;;3.40;;
13985;SDS011;7067;51.832;8.296;2023-02-28T01:11:30;4.77;;;3.23;;
13985;SDS011;7067;51.832;8.296;2023-02-28T01:13:55;3.00;;;2.70;;
13985;SDS011;7067;51.832;8.296;2023-02-28T01:16:20;4.67;;;3.83;;
13985;SDS011;7067;51.832;8.296;2023-02-28T01:18:46;4.07;;;2.83;;
13985;SDS011;7067;51.832;8.296;2023-02-28T01:21:15;5.53;;;3.03;;
13985;SDS011;7067;51.832;8.296;2023-02-28T01:23:41;3.50;;;3.05;;
13985;SDS011;7067;51.832;8.296;2023-02-28T01:26:14;5.50;;;3.17;;
13985;SDS011;7067;51.832;8.296;2023-02-28T01:28:39;4.20;;;3.20;;
13985;SDS011;7067;51.832;8.296;2023-02-28T01:31:05;5.90;;;3.17;;
13985;SDS011;7067;51.832;8.296;2023-02-28T01:33:30;3.47;;;2.73;;
13985;SDS011;7067;51.832;8.296;2023-02-28T01:35:59;3.90;;;2.73;;
13985;SDS011;7067;51.832;8.296;2023-02-28T01:38:24;4.80;;;2.70;;
13985;SDS011;7067;51.832;8.296;2023-02-28T01:40:52;9.20;;;3.57;;
13985;SDS011;7067;51.832;8.296;2023-02-28T01:45:45;3.40;;;2.83;;
13985;SDS011;7067;51.832;8.296;2023-02-28T01:48:11;3.43;;;3.13;;
13985;SDS011;7067;51.832;8.296;2023-02-28T01:50:38;4.83;;;3.30;;
13985;SDS011;7067;51.832;8.296;2023-02-28T01:53:08;7.37;;;3.67;;
13985;SDS011;7067;51.832;8.296;2023-02-28T01:55:33;7.60;;;3.47;;
13985;SDS011;7067;51.832;8.296;2023-02-28T01:58:00;4.03;;;3.37;;
13985;SDS011;7067;51.832;8.296;2023-02-28T02:00:27;3.77;;;3.33;;
13985;SDS011;7067;51.832;8.296;2023-02-28T02:02:53;3.63;;;2.97;;
13985;SDS011;7067;51.832;8.296;2023-02-28T02:05:21;4.83;;;3.20;;
13985;SDS011;7067;51.832;8.296;2023-02-28T02:07:48;5.67;;;3.23;;
13985;SDS011;7067;51.832;8.296;2023-02-28T02:10:15;3.30;;;2.93;;
13985;SDS011;7067;51.832;8.296;2023-02-28T02:15:38;4.47;;;3.57;;
13985;SDS011;7067;51.832;8.296;2023-02-28T02:23:11;6.20;;;2.93;;
13985;SDS011;7067;51.832;8.296;2023-02-28T02:38:38;5.93;;;3.67;;
13985;SDS011;7067;51.832;8.296;2023-02-28T02:41:24;5.43;;;3.10;;
13985;SDS011;7067;51.832;8.296;2023-02-28T02:43:58;5.77;;;3.30;;
13985;SDS011;7067;51.832;8.296;2023-02-28T02:46:28;4.57;;;3.20;;
13985;SDS011;7067;51.832;8.296;2023-02-28T02:48:54;3.83;;;2.87;;
13985;SDS011;7067;51.832;8.296;2023-02-28T02:51:20;5.13;;;2.83;;
13985;SDS011;7067;51.832;8.296;2023-02-28T02:53:50;3.80;;;3.00;;
13985;SDS011;7067;51.832;8.296;2023-02-28T02:56:18;4.60;;;2.60;;
13985;SDS011;7067;51.832;8.296;2023-02-28T02:58:44;4.13;;;2.90;;
13985;SDS011;7067;51.832;8.296;2023-02-28T03:01:14;4.90;;;2.63;;
13985;SDS011;7067;51.832;8.296;2023-02-28T03:03:41;6.95;;;2.80;;
13985;SDS011;7067;51.832;8.296;2023-02-28T03:06:07;3.67;;;2.73;;
13985;SDS011;7067;51.832;8.296;2023-02-28T03:08:34;4.10;;;3.00;;
13985;SDS011;7067;51.832;8.296;2023-02-28T03:11:03;4.23;;;2.43;;
13985;SDS011;7067;51.832;8.296;2023-02-28T03:21:13;4.33;;;3.10;;
13985;SDS011;7067;51.832;8.296;2023-02-28T03:23:48;3.70;;;2.83;;
13985;SDS011;7067;51.832;8.296;2023-02-28T03:26:19;3.87;;;3.00;;
13985;SDS011;7067;51.832;8.296;2023-02-28T03:28:54;4.20;;;2.90;;
13985;SDS011;7067;51.832;8.296;2023-02-28T03:31:30;4.57;;;3.03;;
13985;SDS011;7067;51.832;8.296;2023-02-28T03:34:03;4.00;;;2.80;;
13985;SDS011;7067;51.832;8.296;2023-02-28T03:36:29;4.17;;;3.00;;
13985;SDS011;7067;51.832;8.296;2023-02-28T03:38:57;3.97;;;3.03;;
13985;SDS011;7067;51.832;8.296;2023-02-28T03:41:38;3.73;;;2.70;;
13985;SDS011;7067;51.832;8.296;2023-02-28T03:44:14;4.13;;;3.43;;
13985;SDS011;7067;51.832;8.296;2023-02-28T03:46:42;3.83;;;2.73;;
13985;SDS011;7067;51.832;8.296;2023-02-28T03:49:12;4.57;;;2.90;;
13985;SDS011;7067;51.832;8.296;2023-02-28T03:51:40;3.77;;;2.90;;
13985;SDS011;7067;51.832;8.296;2023-02-28T03:54:08;6.23;;;2.50;;
13985;SDS011;7067;51.832;8.296;2023-02-28T03:56:38;4.43;;;2.83;;
13985;SDS011;7067;51.832;8.296;2023-02-28T03:59:05;3.65;;;2.65;;
13985;SDS011;7067;51.832;8.296;2023-02-28T04:01:36;3.87;;;3.43;;
13985;SDS011;7067;51.832;8.296;2023-02-28T04:04:03;3.67;;;2.97;;
13985;SDS011;7067;51.832;8.296;2023-02-28T04:06:29;3.00;;;2.70;;
13985;SDS011;7067;51.832;8.296;2023-02-28T04:08:55;7.43;;;3.00;;
13985;SDS011;7067;51.832;8.296;2023-02-28T04:11:27;5.07;;;3.00;;
13985;SDS011;7067;51.832;8.296;2023-02-28T04:13:54;3.20;;;2.90;;
13985;SDS011;7067;51.832;8.296;2023-02-28T04:16:20;3.87;;;3.07;;
13985;SDS011;7067;51.832;8.296;2023-02-28T04:18:45;8.57;;;4.03;;
13985;SDS011;7067;51.832;8.296;2023-02-28T04:21:11;5.47;;;3.10;;
13985;SDS011;7067;51.832;8.296;2023-02-28T04:23:36;5.33;;;3.93;;
13985;SDS011;7067;51.832;8.296;2023-02-28T04:26:02;6.20;;;3.40;;
13985;SDS011;7067;51.832;8.296;2023-02-28T04:28:27;3.70;;;3.40;;
13985;SDS011;7067;51.832;8.296;2023-02-28T04:30:56;5.37;;;3.90;;
13985;SDS011;7067;51.832;8.296;2023-02-28T04:33:21;5.17;;;3.03;;
13985;SDS011;7067;51.832;8.296;2023-02-28T04:36:02;6.77;;;4.13;;
13985;SDS011;7067;51.832;8.296;2023-02-28T04:38:29;4.47;;;4.03;;
13985;SDS011;7067;51.832;8.296;2023-02-28T04:40:56;6.33;;;3.83;;
13985;SDS011;7067;51.832;8.296;2023-02-28T04:43:21;4.00;;;3.20;;
13985;SDS011;7067;51.832;8.296;2023-02-28T04:45:47;4.13;;;3.27;;
13985;SDS011;7067;51.832;8.296;2023-02-28T04:48:12;5.10;;;3.63;;
13985;SDS011;7067;51.832;8.296;2023-02-28T04:50:37;10.30;;;4.40;;
13985;SDS011;7067;51.832;8.296;2023-02-28T04:53:02;5.50;;;3.27;;
13985;SDS011;7067;51.832;8.296;2023-02-28T04:55:28;4.03;;;3.13;;
13985;SDS011;7067;51.832;8.296;2023-02-28T04:57:53;5.10;;;3.67;;
13985;SDS011;7067;51.832;8.296;2023-02-28T05:00:18;4.93;;;3.50;;
13985;SDS011;7067;51.832;8.296;2023-02-28T05:02:44;5.50;;;4.03;;
13985;SDS011;7067;51.832;8.296;2023-02-28T05:05:09;4.03;;;3.60;;
13985;SDS011;7067;51.832;8.296;2023-02-28T05:07:34;6.67;;;4.13;;
13985;SDS011;7067;51.832;8.296;2023-02-28T05:10:00;4.80;;;3.63;;
13985;SDS011;7067;51.832;8.296;2023-02-28T05:12:25;5.13;;;3.47;;
13985;SDS011;7067;51.832;8.296;2023-02-28T05:14:50;5.67;;;3.93;;
13985;SDS011;7067;51.832;8.296;2023-02-28T05:17:15;7.03;;;4.30;;
13985;SDS011;7067;51.832;8.296;2023-02-28T05:19:41;8.13;;;3.93;;
13985;SDS011;7067;51.832;8.296;2023-02-28T05:22:11;5.40;;;4.13;;
13985;SDS011;7067;51.832;8.296;2023-02-28T05:24:37;7.33;;;4.17;;
13985;SDS011;7067;51.832;8.296;2023-02-28T05:27:02;7.77;;;4.67;;
13985;SDS011;7067;51.832;8.296;2023-02-28T05:29:28;5.63;;;4.10;;
13985;SDS011;7067;51.832;8.296;2023-02-28T05:31:53;5.63;;;4.37;;
13985;SDS011;7067;51.832;8.296;2023-02-28T05:34:19;4.47;;;3.83;;
13985;SDS011;7067;51.832;8.296;2023-02-28T05:36:44;4.77;;;3.73;;
13985;SDS011;7067;51.832;8.296;2023-02-28T05:39:09;7.90;;;4.33;;
13985;SDS011;7067;51.832;8.296;2023-02-28T05:41:41;4.57;;;4.17;;
13985;SDS011;7067;51.832;8.296;2023-02-28T05:44:07;49.95;;;7.75;;
13985;SDS011;7067;51.832;8.296;2023-02-28T05:46:32;6.60;;;4.47;;
13985;SDS011;7067;51.832;8.296;2023-02-28T05:48:58;9.33;;;7.43;;
13985;SDS011;7067;51.832;8.296;2023-02-28T05:51:25;7.30;;;6.43;;
13985;SDS011;7067;51.832;8.296;2023-02-28T05:53:50;14.53;;;13.53;;
13985;SDS011;7067;51.832;8.296;2023-02-28T05:56:15;30.60;;;28.47;;
13985;SDS011;7067;51.832;8.296;2023-02-28T05:58:40;8.33;;;7.73;;
13985;SDS011;7067;51.832;8.296;2023-02-28T06:01:19;10.27;;;5.20;;
13985;SDS011;7067;51.832;8.296;2023-02-28T06:03:45;5.20;;;4.72;;
13985;SDS011;7067;51.832;8.296;2023-02-28T06:06:11;7.43;;;5.67;;
13985;SDS011;7067;51.832;8.296;2023-02-28T06:08:36;8.13;;;4.97;;
13985;SDS011;7067;51.832;8.296;2023-02-28T06:11:05;10.17;;;9.20;;
13985;SDS011;7067;51.832;8.296;2023-02-28T06:13:30;7.30;;;5.47;;
13985;SDS011;7067;51.832;8.296;2023-02-28T06:15:56;6.77;;;4.87;;
13985;SDS011;7067;51.832;8.296;2023-02-28T06:18:21;4.80;;;4.40;;
13985;SDS011;7067;51.832;8.296;2023-02-28T06:20:55;5.80;;;5.13;;
13985;SDS011;7067;51.832;8.296;2023-02-28T06:23:20;5.93;;;4.93;;
13985;SDS011;7067;51.832;8.296;2023-02-28T06:25:46;7.13;;;5.20;;
13985;SDS011;7067;51.832;8.296;2023-02-28T06:28:11;6.77;;;6.17;;
13985;SDS011;7067;51.832;8.296;2023-02-28T06:30:37;5.87;;;5.03;;
13985;SDS011;7067;51.832;8.296;2023-02-28T06:33:02;13.13;;;5.60;;
13985;SDS011;7067;51.832;8.296;2023-02-28T06:35:27;10.23;;;7.07;;
13985;SDS011;7067;51.832;8.296;2023-02-28T06:37:53;20.40;;;18.97;;
13985;SDS011;7067;51.832;8.296;2023-02-28T06:40:18;8.60;;;6.73;;
13985;SDS011;7067;51.832;8.296;2023-02-28T06:42:43;10.83;;;7.20;;
13985;SDS011;7067;51.832;8.296;2023-02-28T06:45:09;11.50;;;6.83;;
13985;SDS011;7067;51.832;8.296;2023-02-28T06:47:42;12.03;;;7.63;;
13985;SDS011;7067;51.832;8.296;2023-02-28T06:50:10;9.37;;;7.80;;
13985;SDS011;7067;51.832;8.296;2023-02-28T06:52:36;9.17;;;6.97;;
13985;SDS011;7067;51.832;8.296;2023-02-28T06:55:03;7.40;;;6.70;;
13985;SDS011;7067;51.832;8.296;2023-02-28T06:57:29;9.80;;;7.07;;
13985;SDS011;7067;51.832;8.296;2023-02-28T06:59:57;6.43;;;5.83;;
13985;SDS011;7067;51.832;8.296;2023-02-28T07:02:22;7.13;;;6.53;;
13985;SDS011;7067;51.832;8.296;2023-02-28T07:04:48;9.53;;;6.97;;
13985;SDS011;7067;51.832;8.296;2023-02-28T07:07:13;9.50;;;6.77;;
13985;SDS011;7067;51.832;8.296;2023-02-28T07:09:38;8.77;;;6.63;;
13985;SDS011;7067;51.832;8.296;2023-02-28T07:12:04;8.53;;;7.07;;
13985;SDS011;7067;51.832;8.296;2023-02-28T07:14:29;10.53;;;6.93;;
13985;SDS011;7067;51.832;8.296;2023-02-28T07:16:54;8.97;;;7.37;;
13985;SDS011;7067;51.832;8.296;2023-02-28T07:19:20;10.47;;;7.93;;
13985;SDS011;7067;51.832;8.296;2023-02-28T07:21:45;9.93;;;7.57;;
13985;SDS011;7067;51.832;8.296;2023-02-28T07:24:10;12.37;;;8.20;;
13985;SDS011;7067;51.832;8.296;2023-02-28T07:26:36;8.57;;;7.67;;
13985;SDS011;7067;51.832;8.296;2023-02-28T07:29:01;9.33;;;7.30;;
13985;SDS011;7067;51.832;8.296;2023-02-28T07:31:27;10.20;;;7.10;;
13985;SDS011;7067;51.832;8.296;2023-02-28T07:33:52;9.90;;;7.83;;
13985;SDS011;7067;51.832;8.296;2023-02-28T07:36:18;10.07;;;6.40;;
13985;SDS011;7067;51.832;8.296;2023-02-28T07:38:45;9.50;;;6.60;;
13985;SDS011;7067;51.832;8.296;2023-02-28T07:41:13;11.07;;;6.37;;
13985;SDS011;7067;51.832;8.296;2023-02-28T07:43:38;11.03;;;5.47;;
13985;SDS011;7067;51.832;8.296;2023-02-28T07:46:10;6.70;;;5.17;;
13985;SDS011;7067;51.832;8.296;2023-02-28T07:48:35;10.77;;;5.32;;
13985;SDS011;7067;51.832;8.296;2023-02-28T07:51:01;5.27;;;4.60;;
13985;SDS011;7067;51.832;8.296;2023-02-28T07:53:27;5.70;;;4.70;;
13985;SDS011;7067;51.832;8.296;2023-02-28T07:55:56;8.40;;;4.33;;
13985;SDS011;7067;51.832;8.296;2023-02-28T07:58:21;11.43;;;5.17;;
13985;SDS011;7067;51.832;8.296;2023-02-28T08:00:47;6.50;;;4.83;;
13985;SDS011;7067;51.832;8.296;2023-02-28T08:03:12;11.17;;;5.17;;
13985;SDS011;7067;51.832;8.296;2023-02-28T08:05:41;7.37;;;4.17;;
13985;SDS011;7067;51.832;8.296;2023-02-28T08:08:07;6.20;;;4.13;;
13985;SDS011;7067;51.832;8.296;2023-02-28T08:10:32;4.17;;;3.40;;
13985;SDS011;7067;51.832;8.296;2023-02-28T08:12:58;5.63;;;3.70;;
13985;SDS011;7067;51.832;8.296;2023-02-28T08:15:23;3.80;;;3.40;;
13985;SDS011;7067;51.832;8.296;2023-02-28T08:17:48;4.37;;;2.60;;
13985;SDS011;7067;51.832;8.296;2023-02-28T08:20:16;16.73;;;4.00;;
13985;SDS011;7067;51.832;8.296;2023-02-28T08:22:41;3.27;;;2.60;;
13985;SDS011;7067;51.832;8.296;2023-02-28T08:25:07;28.20;;;3.53;;
13985;SDS011;7067;51.832;8.296;2023-02-28T08:27:32;4.27;;;2.70;;
13985;SDS011;7067;51.832;8.296;2023-02-28T08:29:57;18.93;;;4.20;;
13985;SDS011;7067;51.832;8.296;2023-02-28T08:32:23;3.53;;;2.20;;
13985;SDS011;7067;51.832;8.296;2023-02-28T08:34:48;4.90;;;2.70;;
13985;SDS011;7067;51.832;8.296;2023-02-28T08:37:13;5.13;;;2.30;;
13985;SDS011;7067;51.832;8.296;2023-02-28T08:39:39;7.50;;;3.47;;
13985;SDS011;7067;51.832;8.296;2023-02-28T08:42:04;43.00;;;4.20;;
13985;SDS011;7067;51.832;8.296;2023-02-28T08:44:29;27.07;;;5.33;;
13985;SDS011;7067;51.832;8.296;2023-02-28T08:46:59;19.40;;;4.90;;
13985;SDS011;7067;51.832;8.296;2023-02-28T08:49:25;15.53;;;3.27;;
13985;SDS011;7067;51.832;8.296;2023-02-28T08:51:50;8.37;;;2.47;;
13985;SDS011;7067;51.832;8.296;2023-02-28T08:54:15;7.80;;;2.93;;
13985;SDS011;7067;51.832;8.296;2023-02-28T08:56:47;11.30;;;3.00;;
13985;SDS011;7067;51.832;8.296;2023-02-28T08:59:12;26.73;;;3.43;;
13985;SDS011;7067;51.832;8.296;2023-02-28T09:01:37;18.27;;;3.33;;
13985;SDS011;7067;51.832;8.296;2023-02-28T09:04:03;5.27;;;3.10;;
13985;SDS011;7067;51.832;8.296;2023-02-28T09:06:28;24.23;;;4.13;;
13985;SDS011;7067;51.832;8.296;2023-02-28T09:08:56;14.77;;;3.33;;
13985;SDS011;7067;51.832;8.296;2023-02-28T09:11:23;4.05;;;1.75;;
13985;SDS011;7067;51.832;8.296;2023-02-28T09:13:48;7.50;;;2.20;;
13985;SDS011;7067;51.832;8.296;2023-02-28T09:16:14;16.03;;;3.00;;
13985;SDS011;7067;51.832;8.296;2023-02-28T09:18:41;9.03;;;3.07;;
13985;SDS011;7067;51.832;8.296;2023-02-28T09:21:07;3.30;;;2.13;;
13985;SDS011;7067;51.832;8.296;2023-02-28T09:23:32;43.67;;;4.23;;
13985;SDS011;7067;51.832;8.296;2023-02-28T09:25:58;8.80;;;3.00;;
13985;SDS011;7067;51.832;8.296;2023-02-28T09:28:23;4.57;;;2.30;;
13985;SDS011;7067;51.832;8.296;2023-02-28T09:30:49;25.57;;;4.73;;
13985;SDS011;7067;51.832;8.296;2023-02-28T09:33:16;10.20;;;3.07;;
13985;SDS011;7067;51.832;8.296;2023-02-28T09:35:42;11.87;;;3.43;;
13985;SDS011;7067;51.832;8.296;2023-02-28T09:38:07;3.50;;;2.33;;
13985;SDS011;7067;51.832;8.296;2023-02-28T09:40:36;36.13;;;4.00;;
13985;SDS011;7067;51.832;8.296;2023-02-28T09:43:01;12.87;;;3.20;;
13985;SDS011;7067;51.832;8.296;2023-02-28T09:47:53;8.03;;;2.27;;
13985;SDS011;7067;51.832;8.296;2023-02-28T09:50:30;42.27;;;6.83;;
13985;SDS011;7067;51.832;8.296;2023-02-28T09:52:58;80.33;;;9.57;;
13985;SDS011;7067;51.832;8.296;2023-02-28T09:57:58;45.67;;;6.30;;
13985;SDS011;7067;51.832;8.296;2023-02-28T10:00:30;44.20;;;7.07;;
13985;SDS011;7067;51.832;8.296;2023-02-28T10:05:58;55.53;;;9.23;;
13985;SDS011;7067;51.832;8.296;2023-02-28T10:08:19;53.87;;;10.40;;
13985;SDS011;7067;51.832;8.296;2023-02-28T10:11:00;52.53;;;13.83;;
13985;SDS011;7067;51.832;8.296;2023-02-28T10:13:36;55.80;;;11.73;;
13985;SDS011;7067;51.832;8.296;2023-02-28T10:16:06;72.43;;;11.80;;
13985;SDS011;7067;51.832;8.296;2023-02-28T10:18:52;63.50;;;15.73;;
13985;SDS011;7067;51.832;8.296;2023-02-28T10:21:21;47.83;;;10.50;;
13985;SDS011;7067;51.832;8.296;2023-02-28T10:23:49;49.13;;;11.20;;
13985;SDS011;7067;51.832;8.296;2023-02-28T10:26:17;130.67;;;17.27;;
13985;SDS011;7067;51.832;8.296;2023-02-28T10:28:43;69.47;;;15.47;;
13985;SDS011;7067;51.832;8.296;2023-02-28T10:31:13;68.37;;;15.37;;
13985;SDS011;7067;51.832;8.296;2023-02-28T10:33:41;56.73;;;13.33;;
13985;SDS011;7067;51.832;8.296;2023-02-28T10:36:08;88.47;;;16.80;;
13985;SDS011;7067;51.832;8.296;2023-02-28T10:38:36;86.32;;;13.35;;
13985;SDS011;7067;51.832;8.296;2023-02-28T10:41:12;57.07;;;15.23;;
13985;SDS011;7067;51.832;8.296;2023-02-28T10:43:38;63.10;;;14.90;;
13985;SDS011;7067;51.832;8.296;2023-02-28T10:46:09;51.83;;;15.63;;
13985;SDS011;7067;51.832;8.296;2023-02-28T10:48:38;89.10;;;15.50;;
13985;SDS011;7067;51.832;8.296;2023-02-28T10:51:14;62.33;;;16.80;;
13985;SDS011;7067;51.832;8.296;2023-02-28T11:01:12;46.13;;;11.53;;
13985;SDS011;7067;51.832;8.296;2023-02-28T11:06:07;72.40;;;12.35;;
13985;SDS011;7067;51.832;8.296;2023-02-28T11:08:33;75.07;;;11.15;;
13985;SDS011;7067;51.832;8.296;2023-02-28T11:11:00;76.90;;;14.30;;
13985;SDS011;7067;51.832;8.296;2023-02-28T11:13:29;63.33;;;12.63;;
13985;SDS011;7067;51.832;8.296;2023-02-28T11:15:57;51.33;;;12.03;;
13985;SDS011;7067;51.832;8.296;2023-02-28T11:18:25;52.13;;;11.03;;
13985;SDS011;7067;51.832;8.296;2023-02-28T11:20:52;75.67;;;15.33;;
13985;SDS011;7067;51.832;8.296;2023-02-28T11:23:19;94.07;;;13.50;;
13985;SDS011;7067;51.832;8.296;2023-02-28T11:25:49;57.63;;;14.03;;
13985;SDS011;7067;51.832;8.296;2023-02-28T11:28:32;52.33;;;14.53;;
13985;SDS011;7067;51.832;8.296;2023-02-28T11:33:53;51.30;;;11.83;;
13985;SDS011;7067;51.832;8.296;2023-02-28T11:38:49;71.17;;;14.40;;
13985;SDS011;7067;51.832;8.296;2023-02-28T11:43:53;77.17;;;13.83;;
13985;SDS011;7067;51.832;8.296;2023-02-28T11:51:47;53.20;;;13.63;;
13985;SDS011;7067;51.832;8.296;2023-02-28T11:56:47;91.93;;;15.47;;
13985;SDS011;7067;51.832;8.296;2023-02-28T12:07:30;59.43;;;13.60;;
13985;SDS011;7067;51.832;8.296;2023-02-28T12:10:14;64.73;;;17.73;;
13985;SDS011;7067;51.832;8.296;2023-02-28T12:12:59;57.33;;;15.93;;
13985;SDS011;7067;51.832;8.296;2023-02-28T12:20:46;91.80;;;14.73;;
13985;SDS011;7067;51.832;8.296;2023-02-28T12:28:18;56.50;;;15.00;;
13985;SDS011;7067;51.832;8.296;2023-02-28T12:30:53;90.30;;;16.40;;
13985;SDS011;7067;51.832;8.296;2023-02-28T12:33:20;56.23;;;16.53;;
13985;SDS011;7067;51.832;8.296;2023-02-28T12:35:57;84.43;;;16.47;;
13985;SDS011;7067;51.832;8.296;2023-02-28T12:40:53;68.17;;;13.90;;
13985;SDS011;7067;51.832;8.296;2023-02-28T12:43:19;61.03;;;19.67;;
13985;SDS011;7067;51.832;8.296;2023-02-28T12:48:14;86.33;;;15.73;;
13985;SDS011;7067;51.832;8.296;2023-02-28T12:50:40;54.70;;;15.93;;
13985;SDS011;7067;51.832;8.296;2023-02-28T12:53:06;88.70;;;17.33;;
13985;SDS011;7067;51.832;8.296;2023-02-28T13:00:33;56.17;;;14.43;;
13985;SDS011;7067;51.832;8.296;2023-02-28T13:03:24;45.67;;;12.07;;
13985;SDS011;7067;51.832;8.296;2023-02-28T13:10:53;95.63;;;18.27;;
13985;SDS011;7067;51.832;8.296;2023-02-28T13:13:21;71.30;;;16.10;;
13985;SDS011;7067;51.832;8.296;2023-02-28T13:15:57;70.73;;;16.63;;
13985;SDS011;7067;51.832;8.296;2023-02-28T13:18:31;83.40;;;15.97;;
13985;SDS011;7067;51.832;8.296;2023-02-28T13:20:57;110.27;;;18.80;;
13985;SDS011;7067;51.832;8.296;2023-02-28T13:24:05;82.50;;;17.73;;
13985;SDS011;7067;51.832;8.296;2023-02-28T13:26:17;80.90;;;18.63;;
13985;SDS011;7067;51.832;8.296;2023-02-28T13:31:13;67.33;;;15.87;;
13985;SDS011;7067;51.832;8.296;2023-02-28T13:34:24;81.97;;;18.33;;
13985;SDS011;7067;51.832;8.296;2023-02-28T13:36:29;134.10;;;19.20;;
13985;SDS011;7067;51.832;8.296;2023-02-28T13:39:45;147.53;;;23.17;;
13985;SDS011;7067;51.832;8.296;2023-02-28T13:41:48;102.37;;;16.07;;
13985;SDS011;7067;51.832;8.296;2023-02-28T13:44:21;84.50;;;15.73;;
13985;SDS011;7067;51.832;8.296;2023-02-28T13:49:23;79.93;;;16.67;;
13985;SDS011;7067;51.832;8.296;2023-02-28T13:57:07;91.90;;;20.40;;
13985;SDS011;7067;51.832;8.296;2023-02-28T13:59:42;92.03;;;15.07;;
13985;SDS011;7067;51.832;8.296;2023-02-28T14:05:10;97.60;;;21.52;;
13985;SDS011;7067;51.832;8.296;2023-02-28T14:07:40;90.70;;;15.03;;
13985;SDS011;7067;51.832;8.296;2023-02-28T14:10:06;95.72;;;19.10;;
13985;SDS011;7067;51.832;8.296;2023-02-28T14:17:52;78.32;;;14.07;;
13985;SDS011;7067;51.832;8.296;2023-02-28T14:20:18;75.87;;;14.50;;
13985;SDS011;7067;51.832;8.296;2023-02-28T14:23:06;124.93;;;17.03;;
13985;SDS011;7067;51.832;8.296;2023-02-28T14:30:43;91.10;;;17.40;;
13985;SDS011;7067;51.832;8.296;2023-02-28T14:33:18;101.40;;;22.33;;
13985;SDS011;7067;51.832;8.296;2023-02-28T14:38:25;80.60;;;15.48;;
13985;SDS011;7067;51.832;8.296;2023-02-28T14:40:53;72.67;;;19.63;;
13985;SDS011;7067;51.832;8.296;2023-02-28T14:43:20;77.83;;;15.97;;
13985;SDS011;7067;51.832;8.296;2023-02-28T14:45:49;95.15;;;17.48;;
13985;SDS011;7067;51.832;8.296;2023-02-28T14:48:15;142.40;;;18.48;;
13985;SDS011;7067;51.832;8.296;2023-02-28T14:50:40;51.83;;;15.73;;
13985;SDS011;7067;51.832;8.296;2023-02-28T14:53:15;73.60;;;16.75;;
13985;SDS011;7067;51.832;8.296;2023-02-28T14:55:44;60.47;;;17.85;;
13985;SDS011;7067;51.832;8.296;2023-02-28T14:58:26;66.80;;;15.13;;
13985;SDS011;7067;51.832;8.296;2023-02-28T15:00:52;67.95;;;15.45;;
13985;SDS011;7067;51.832;8.296;2023-02-28T15:05:47;74.25;;;18.05;;
13985;SDS011;7067;51.832;8.296;2023-02-28T15:08:16;96.10;;;18.80;;
13985;SDS011;7067;51.832;8.296;2023-02-28T15:10:45;149.73;;;20.43;;
13985;SDS011;7067;51.832;8.296;2023-02-28T15:13:13;138.40;;;26.30;;
13985;SDS011;7067;51.832;8.296;2023-02-28T15:15:45;96.07;;;19.38;;
13985;SDS011;7067;51.832;8.296;2023-02-28T15:20:51;80.37;;;16.60;;
13985;SDS011;7067;51.832;8.296;2023-02-28T15:23:16;96.93;;;19.73;;
13985;SDS011;7067;51.832;8.296;2023-02-28T15:25:42;86.37;;;17.63;;
13985;SDS011;7067;51.832;8.296;2023-02-28T15:28:12;141.80;;;23.50;;
13985;SDS011;7067;51.832;8.296;2023-02-28T15:30:39;95.78;;;16.63;;
13985;SDS011;7067;51.832;8.296;2023-02-28T15:33:18;113.53;;;20.58;;
13985;SDS011;7067;51.832;8.296;2023-02-28T15:35:43;97.68;;;19.55;;
13985;SDS011;7067;51.832;8.296;2023-02-28T15:38:22;68.15;;;15.55;;
13985;SDS011;7067;51.832;8.296;2023-02-28T15:48:17;65.10;;;13.37;;
13985;SDS011;7067;51.832;8.296;2023-02-28T15:50:43;101.90;;;15.60;;
13985;SDS011;7067;51.832;8.296;2023-02-28T15:53:12;65.87;;;18.60;;
13985;SDS011;7067;51.832;8.296;2023-02-28T15:55:38;86.00;;;17.80;;
13985;SDS011;7067;51.832;8.296;2023-02-28T15:58:04;85.63;;;19.47;;
13985;SDS011;7067;51.832;8.296;2023-02-28T16:00:31;84.43;;;19.27;;
13985;SDS011;7067;51.832;8.296;2023-02-28T16:02:59;98.47;;;18.90;;
13985;SDS011;7067;51.832;8.296;2023-02-28T16:05:28;52.00;;;14.13;;
13985;SDS011;7067;51.832;8.296;2023-02-28T16:07:56;70.13;;;16.17;;
13985;SDS011;7067;51.832;8.296;2023-02-28T16:10:22;76.03;;;15.57;;
13985;SDS011;7067;51.832;8.296;2023-02-28T16:12:52;69.37;;;15.83;;
13985;SDS011;7067;51.832;8.296;2023-02-28T16:15:21;53.83;;;18.73;;
13985;SDS011;7067;51.832;8.296;2023-02-28T16:17:47;101.65;;;18.55;;
13985;SDS011;7067;51.832;8.296;2023-02-28T16:20:13;62.13;;;13.93;;
13985;SDS011;7067;51.832;8.296;2023-02-28T16:22:38;55.37;;;13.73;;
13985;SDS011;7067;51.832;8.296;2023-02-28T16:25:04;59.03;;;15.47;;
13985;SDS011;7067;51.832;8.296;2023-02-28T16:27:33;54.73;;;14.80;;
13985;SDS011;7067;51.832;8.296;2023-02-28T16:30:00;72.43;;;14.40;;
13985;SDS011;7067;51.832;8.296;2023-02-28T16:32:25;53.63;;;13.83;;
13985;SDS011;7067;51.832;8.296;2023-02-28T16:34:51;52.73;;;15.67;;
13985;SDS011;7067;51.832;8.296;2023-02-28T16:37:17;96.17;;;15.50;;
13985;SDS011;7067;51.832;8.296;2023-02-28T16:39:43;73.13;;;16.63;;
13985;SDS011;7067;51.832;8.296;2023-02-28T16:42:15;96.70;;;15.77;;
13985;SDS011;7067;51.832;8.296;2023-02-28T16:44:41;71.67;;;17.50;;
13985;SDS011;7067;51.832;8.296;2023-02-28T16:47:08;57.97;;;13.57;;
13985;SDS011;7067;51.832;8.296;2023-02-28T16:49:34;49.63;;;15.97;;
13985;SDS011;7067;51.832;8.296;2023-02-28T16:52:00;60.97;;;14.33;;
13985;SDS011;7067;51.832;8.296;2023-02-28T16:54:25;60.73;;;14.10;;
13985;SDS011;7067;51.832;8.296;2023-02-28T16:56:50;55.97;;;15.93;;
13985;SDS011;7067;51.832;8.296;2023-02-28T16:59:18;56.20;;;14.60;;
13985;SDS011;7067;51.832;8.296;2023-02-28T17:01:43;81.43;;;13.53;;
13985;SDS011;7067;51.832;8.296;2023-02-28T17:04:09;46.57;;;13.33;;
13985;SDS011;7067;51.832;8.296;2023-02-28T17:06:35;85.87;;;18.43;;
13985;SDS011;7067;51.832;8.296;2023-02-28T17:09:00;86.83;;;15.53;;